• Join FlightAware (Why Join?)
  • Login
  • US Flag GB Flag 
07:40 EDT


 

Airport Tracker/Info


-or-


 

Live Flight TrackerFlight Track Log ✈ AAL963 ✈ 01-May-2013 ✈ KDFW - SBGR / GRU

Flight Track Log - Related Links

Times and Time Zones

All times are in EDT time to prevent confusion due to time zone crossing. See the AAL963 flight status page for this flight to view local times or setup timezone preferences in your user account.

Time Position Orientation Groundspeed Altitude Reporting Facility
EDT Latitude Longitude Course Direction KTS MPH feet Rate Location/Type
21:32 32.8320 -97.0630 195° South 212 244 2,400  Level FlightAware
21:32 32.8060 -97.0700 193° South 233 268 2,700 720 Climbing FlightAware
21:33 32.7830 -97.0740 188° South 254 292 3,000 1,200 Climbing FlightAware
21:33 32.7400 -97.0720 178° South 276 318 3,800 1,980 Climbing FlightAware
21:34 32.7020 -97.0720 180° South 275 316 5,000 1,980 Climbing FlightAware
21:34 32.6640 -97.0720 180° South 289 333 5,800 1,740 Climbing FlightAware
21:35 32.6310 -97.0700 177° South 289 333 6,600 1,920 Climbing FlightAware
21:35 32.5880 -97.0680 178° South 295 339 7,600 1,860 Climbing FlightAware
21:35 32.5690 -97.0680 180° South 301 346 8,000 1,800 Climbing FlightAware
21:36 32.5340 -97.0670 179° South 304 350 8,800 1,740 Climbing FlightAware
21:36 32.4910 -97.0660 179° South 310 357 9,600 1,800 Climbing FlightAware
21:37 32.4290 -97.0640 178° South 317 365 10,900 1,320 Climbing FlightAware
21:38 32.3590 -97.0620 179° South 357 411 11,500 1,020 Climbing FlightAware
21:38 32.2910 -97.0590 178° South 380 437 12,400 1,200 Climbing FlightAware
21:39 32.2210 -97.0610 181° South 405 466 13,100 1,380 Climbing FlightAware
21:40 32.1370 -97.0640 182° South 420 483 14,400 1,800 Climbing FlightAware
21:40 32.0610 -97.0660 181° South 428 493 15,700 1,980 Climbing FlightAware
21:41 31.9760 -97.0690 182° South 437 503 17,100 1,920 Climbing FlightAware
21:42 31.8880 -97.0710 181° South 443 510 18,500 1,980 Climbing FlightAware
21:42 31.8474 -97.0727 182° South 440 506 19,100 1,980 Climbing FlightAware ADS-B
21:43 31.7685 -97.0751 181° South 440 506 20,300 1,740 Climbing FlightAware ADS-B
21:43 31.7046 -97.0771 182° South 458 527 21,100 1,560 Climbing FlightAware ADS-B
21:44 31.6385 -97.0792 182° South 464 534 21,900 1,620 Climbing FlightAware ADS-B
21:44 31.5730 -97.0812 181° South 467 537 22,800 1,620 Climbing FlightAware ADS-B
21:45 31.5208 -97.0839 183° South 472 543 23,400 1,200 Climbing FlightAware ADS-B
21:45 31.4541 -97.0901 185° South 482 555 23,900 1,140 Climbing FlightAware ADS-B
21:46 31.3864 -97.0971 185° South 486 559 24,600 1,320 Climbing FlightAware ADS-B
21:46 31.3145 -97.1048 185° South 492 566 25,300 1,200 Climbing FlightAware ADS-B
21:47 31.2448 -97.1121 185° South 496 571 25,900 1,200 Climbing FlightAware ADS-B
21:47 31.1754 -97.1192 185° South 502 578 26,500 1,080 Climbing FlightAware ADS-B
21:48 31.1044 -97.1265 185° South 508 585 27,000 1,080 Climbing FlightAware ADS-B
21:48 31.0338 -97.1338 185° South 512 589 27,600 1,080 Climbing FlightAware ADS-B
21:49 30.9620 -97.1412 185° South 515 593 28,100 960 Climbing FlightAware ADS-B
21:49 30.8892 -97.1486 185° South 518 596 28,600 1,020 Climbing FlightAware ADS-B
21:50 30.8139 -97.1562 185° South 521 600 29,200 960 Climbing FlightAware ADS-B
21:50 30.7410 -97.1636 185° South 525 604 29,600 780 Climbing FlightAware ADS-B
21:51 30.6677 -97.1712 185° South 528 608 30,000 900 Climbing FlightAware ADS-B
21:51 30.5936 -97.1787 185° South 531 611 30,500 960 Climbing FlightAware ADS-B
21:52 30.5155 -97.1866 185° South 530 610 31,000 1,140 Climbing FlightAware ADS-B
21:52 30.4419 -97.1941 185° South 527 606 31,700 960 Climbing FlightAware ADS-B
21:53 30.3673 -97.2017 185° South 525 604 32,000 240 Climbing FlightAware ADS-B
21:53 30.2942 -97.2091 185° South 525 604 32,000  Level FlightAware ADS-B
21:54 30.2215 -97.2164 185° South 524 603 32,000  Level FlightAware ADS-B
21:54 30.1459 -97.2240 185° South 523 602 32,000  Level FlightAware ADS-B
21:54 30.1335 -97.2252 185° South 523 602 32,000  Level FlightAware ADS-B
21:55 30.0715 -97.2315 185° South 523 602 32,000  Level FlightAware ADS-B
21:55 29.9810 -97.2406 185° South 523 602 32,000  Level FlightAware ADS-B
21:56 29.9074 -97.2480 185° South 523 602 32,000  Level FlightAware ADS-B
21:56 29.8886 -97.2499 185° South 523 602 32,000  Level FlightAware ADS-B
21:57 29.8336 -97.2554 185° South 522 601 32,000  Level FlightAware ADS-B
21:57 29.7612 -97.2626 185° South 522 601 32,000  Level FlightAware ADS-B
21:57 29.7532 -97.2634 185° South 522 601 32,000  Level FlightAware ADS-B
21:58 29.6883 -97.2698 185° South 521 600 32,000  Level FlightAware ADS-B
21:58 29.6684 -97.2718 185° South 520 598 32,000  Level FlightAware ADS-B
21:58 29.6465 -97.2737 184° South 521 600 32,000  Level FlightAware ADS-B
21:58 29.6216 -97.2746 182° South 521 600 32,000  Level FlightAware ADS-B
21:58 29.6069 -97.2744 179° South 522 601 32,000  Level FlightAware ADS-B
21:58 29.5702 -97.2718 176° South 524 603 32,000  Level FlightAware ADS-B
21:59 29.5366 -97.2662 172° South 524 603 32,000  Level FlightAware ADS-B
21:59 29.4653 -97.2470 167° South 525 604 32,000  Level FlightAware ADS-B
22:00 29.3944 -97.2258 165° South 525 604 32,000  Level FlightAware ADS-B
22:00 29.3210 -97.2039 165° South 525 604 32,000  Level FlightAware ADS-B
22:01 29.2499 -97.1831 166° South 524 603 32,000  Level FlightAware ADS-B
22:01 29.1783 -97.1624 166° South 524 603 32,000  Level FlightAware ADS-B
22:02 29.1077 -97.1422 166° South 524 603 32,000  Level FlightAware ADS-B
22:02 29.0366 -97.1219 166° South 525 604 32,000  Level FlightAware ADS-B
22:03 28.9652 -97.1015 166° South 524 603 32,000 -120 Level FlightAware ADS-B
22:03 28.9306 -97.0922 166° South 525 604 31,900  Descending Houston Center
22:04 28.7622 -97.0450 166° South 523 602 32,000  Climbing Houston Center
22:05 28.6217 -97.0050 166° South 522 601 31,900  Descending Houston Center
22:06 28.4814 -96.9644 166° South 521 600 32,000  Climbing Houston Center
22:07 28.3408 -96.9250 166° South 520 598 32,000  Level Houston Center
22:13 27.5652 -96.7087 166° South 528 608 32,000  Level FlightAware ADS-B
22:13 27.4565 -96.6788 166° South 531 611 32,000  Level FlightAware ADS-B
22:14 27.3720 -96.6557 166° South 533 613 32,000  Level FlightAware ADS-B
22:14 27.2916 -96.6337 166° South 533 613 32,000  Level FlightAware ADS-B
22:15 27.2151 -96.6128 166° South 535 616 32,000  Level FlightAware ADS-B
22:16 27.1034 -96.5824 166° South 536 617 32,000  Level FlightAware ADS-B
22:18 26.7720 -96.4920 166° South 534 615 32,000  Level FlightAware
22:19 26.6700 -96.4650 167° South 532 612 32,000  Level FlightAware
22:20 26.5630 -96.4360 166° South 531 611 32,000  Level FlightAware
22:20 26.4510 -96.4050 166° South 532 612 32,000  Level FlightAware
22:21 26.3570 -96.3800 167° South 534 615 32,000  Level FlightAware
22:22 26.2600 -96.3540 166° South 534 615 32,000  Level FlightAware
22:22 26.1540 -96.3260 167° South 536 617 32,000  Level FlightAware
22:23 26.0860 -96.3070 166° South 536 617 32,000 360 Level FlightAware
22:24 25.9610 -96.2740 167° South 536 617 32,500 600 Climbing FlightAware
22:24 25.8490 -96.2440 166° South 528 608 33,000 300 Climbing FlightAware
22:25 25.7440 -96.2160 166° South 528 608 33,000  Level FlightAware
22:26 25.6500 -96.1910 167° South 526 605 33,000  Level FlightAware
22:27 25.5540 -96.1660 167° South 526 605 33,000  Level FlightAware
22:27 25.4450 -96.1370 166° South 526 605 33,000  Level FlightAware
22:28 25.3490 -96.1120 167° South 526 605 33,000  Level FlightAware
22:29 25.2570 -96.0870 166° South 526 605 33,000  Level FlightAware
22:29 25.1520 -96.0600 167° South 526 605 33,000  Level FlightAware
22:30 25.0710 -96.0380 166° South 526 605 33,000  Level FlightAware
22:31 24.9660 -95.9950 160° South 554 638 33,000  Level FlightAware
22:31 24.8920 -95.9170 136° Southeast 570 656 33,000  Level FlightAware
22:32 24.8300 -95.8460 134° Southeast 570 656 33,000  Level FlightAware
22:33 24.7520 -95.7570 134° Southeast 570 656 33,000  Level FlightAware
22:34 24.6890 -95.6860 134° Southeast 570 656 33,000  Level FlightAware
22:34 24.6270 -95.6150 134° Southeast 570 656 33,000  Level FlightAware
22:35 24.5650 -95.5440 134° Southeast 570 656 33,000  Level FlightAware
22:36 24.5030 -95.4740 134° Southeast 570 656 33,000  Level FlightAware
22:36 24.4250 -95.3850 134° Southeast 570 656 33,000  Level FlightAware
22:37 24.3620 -95.3140 134° Southeast 570 656 33,000  Level FlightAware
22:38 24.3000 -95.2430 134° Southeast 570 656 33,000  Level FlightAware
22:38 24.2380 -95.1730 134° Southeast 570 656 33,000  Level FlightAware
22:39 24.1600 -95.0840 134° Southeast 570 656 33,000  Level FlightAware
22:40 24.0980 -95.0140 134° Southeast 570 656 33,000  Level FlightAware
22:41 24.0350 -94.9430 134° Southeast 570 656 33,000  Level FlightAware
22:43 23.8557 -94.7227 132° Southeast  Level Estimated
22:44 23.7644 -94.6110 132° Southeast  Level Estimated
22:45 23.6730 -94.4994 132° Southeast  Level Estimated
22:46 23.5815 -94.3879 132° Southeast  Level Estimated
22:47 23.4900 -94.2766 132° Southeast  Level Estimated
22:48 23.3984 -94.1655 132° Southeast  Level Estimated
22:49 23.3067 -94.0545 132° Southeast  Level Estimated
22:50 23.2149 -93.9436 132° Southeast  Level Estimated
22:51 23.1230 -93.8329 132° Southeast  Level Estimated
22:52 23.0311 -93.7224 132° Southeast  Level Estimated
22:53 22.9391 -93.6120 132° Southeast  Level Estimated
22:54 22.8470 -93.5018 132° Southeast  Level Estimated
22:55 22.7548 -93.3917 132° Southeast  Level Estimated
22:56 22.6626 -93.2818 132° Southeast  Level Estimated
22:57 22.5703 -93.1720 132° Southeast  Level Estimated
22:58 22.4779 -93.0623 132° Southeast  Level Estimated
22:59 22.3854 -92.9529 132° Southeast  Level Estimated
23:00 22.2929 -92.8435 132° Southeast  Level Estimated
23:01 22.2003 -92.7343 132° Southeast  Level Estimated
23:02 22.1076 -92.6253 133° Southeast  Level Estimated
23:03 22.0149 -92.5163 133° Southeast  Level Estimated
23:04 21.9221 -92.4076 133° Southeast  Level Estimated
23:05 21.8291 -92.2989 133° Southeast  Level Estimated
23:06 21.7362 -92.1904 133° Southeast  Level Estimated
23:07 21.6431 -92.0821 133° Southeast  Level Estimated
23:08 21.5500 -91.9739 133° Southeast  Level Estimated
23:09 21.4569 -91.8658 133° Southeast  Level Estimated
23:10 21.3636 -91.7579 133° Southeast  Level Estimated
23:11 21.2703 -91.6501 133° Southeast  Level Estimated
23:12 21.1769 -91.5424 133° Southeast  Level Estimated
23:13 21.0835 -91.4349 133° Southeast  Level Estimated
23:14 20.9899 -91.3275 133° Southeast  Level Estimated
23:15 20.8963 -91.2203 133° Southeast  Level Estimated
23:16 20.8027 -91.1131 133° Southeast  Level Estimated
23:17 20.7090 -91.0061 133° Southeast  Level Estimated
23:18 20.6152 -90.8993 133° Southeast  Level Estimated
23:19 20.5213 -90.7926 133° Southeast  Level Estimated
23:20 20.4274 -90.6860 133° Southeast  Level Estimated
23:21 20.3334 -90.5795 133° Southeast  Level Estimated
23:22 20.2394 -90.4732 133° Southeast  Level Estimated
23:23 20.1453 -90.3670 133° Southeast  Level Estimated
23:24 20.0511 -90.2609 133° Southeast  Level Estimated
23:25 19.9569 -90.1549 133° Southeast  Level Estimated
23:26 19.8626 -90.0491 133° Southeast  Level Estimated
23:27 19.7682 -89.9434 133° Southeast  Level Estimated
23:28 19.6738 -89.8379 134° Southeast  Level Estimated
23:29 19.5793 -89.7324 134° Southeast  Level Estimated
23:30 19.4847 -89.6271 134° Southeast  Level Estimated
23:31 19.3901 -89.5219 134° Southeast  Level Estimated
23:32 19.2955 -89.4168 134° Southeast  Level Estimated
23:33 19.2007 -89.3118 134° Southeast  Level Estimated
23:34 19.1059 -89.2070 134° Southeast  Level Estimated
23:35 19.0111 -89.1023 134° Southeast  Level Estimated
23:36 18.9162 -88.9977 134° Southeast  Level Estimated
23:37 18.8212 -88.8932 134° Southeast  Level Estimated
23:38 18.7262 -88.7888 134° Southeast  Level Estimated
23:39 18.6311 -88.6846 134° Southeast  Level Estimated
23:40 18.5360 -88.5805 134° Southeast  Level Estimated
23:41 18.4408 -88.4764 134° Southeast  Level Estimated
23:42 18.3455 -88.3726 134° Southeast  Level Estimated
23:43 18.2502 -88.2688 134° Southeast  Level Estimated
23:44 18.1549 -88.1651 134° Southeast  Level Estimated
23:45 18.0595 -88.0615 134° Southeast  Level Estimated
23:46 17.9651 -87.9593 134° Southeast  Level Estimated
23:47 17.8707 -87.8572 134° Southeast  Level Estimated
23:48 17.7763 -87.7552 134° Southeast  Level Estimated
23:49 17.6818 -87.6534 134° Southeast  Level Estimated
23:50 17.5873 -87.5516 134° Southeast  Level Estimated
23:51 17.4927 -87.4499 134° Southeast  Level Estimated
23:52 17.3980 -87.3484 134° Southeast  Level Estimated
23:53 17.3033 -87.2469 134° Southeast  Level Estimated
23:54 17.2086 -87.1456 134° Southeast  Level Estimated
23:55 17.1138 -87.0443 134° Southeast  Level Estimated
23:56 17.0189 -86.9432 134° Southeast  Level Estimated
23:57 16.9240 -86.8421 134° Southeast  Level Estimated
23:58 16.8291 -86.7412 134° Southeast  Level Estimated
23:59 16.7341 -86.6403 135° Southeast  Level Estimated
00:00 16.6390 -86.5396 135° Southeast  Level Estimated
00:01 16.5439 -86.4390 135° Southeast  Level Estimated
00:02 16.4488 -86.3384 135° Southeast  Level Estimated
00:03 16.3536 -86.2380 135° Southeast  Level Estimated
00:04 16.2583 -86.1376 135° Southeast  Level Estimated
00:05 16.1630 -86.0374 135° Southeast  Level Estimated
00:06 16.0677 -85.9372 135° Southeast  Level Estimated
00:07 15.9723 -85.8372 135° Southeast  Level Estimated
00:08 15.8769 -85.7372 135° Southeast  Level Estimated
00:09 15.7814 -85.6374 135° Southeast  Level Estimated
00:10 15.6859 -85.5376 135° Southeast  Level Estimated
00:11 15.5903 -85.4379 135° Southeast  Level Estimated
00:12 15.4947 -85.3383 135° Southeast  Level Estimated
00:13 15.3991 -85.2389 135° Southeast  Level Estimated
00:14 15.3034 -85.1395 135° Southeast  Level Estimated
00:15 15.2076 -85.0401 135° Southeast  Level Estimated
00:16 15.1118 -84.9409 135° Southeast  Level Estimated
00:17 15.0160 -84.8418 135° Southeast  Level Estimated
00:18 14.9201 -84.7428 135° Southeast  Level Estimated
00:19 14.8242 -84.6438 135° Southeast  Level Estimated
00:20 14.7283 -84.5449 135° Southeast  Level Estimated
00:21 14.6323 -84.4462 135° Southeast  Level Estimated
00:22 14.5362 -84.3475 135° Southeast  Level Estimated
00:23 14.4402 -84.2488 135° Southeast  Level Estimated
00:24 14.3440 -84.1503 135° Southeast  Level Estimated
00:25 14.2479 -84.0519 135° Southeast  Level Estimated
00:26 14.1517 -83.9535 135° Southeast  Level Estimated
00:27 14.0554 -83.8553 135° Southeast  Level Estimated
00:28 13.9592 -83.7571 135° Southeast  Level Estimated
00:29 13.8628 -83.6590 135° Southeast  Level Estimated
00:30 13.7663 -83.5608 135° Southeast  Level Estimated
00:31 13.6698 -83.4627 135° Southeast  Level Estimated
00:32 13.5731 -83.3646 135° Southeast  Level Estimated
00:33 13.4765 -83.2667 135° Southeast  Level Estimated
00:34 13.3798 -83.1688 135° Southeast  Level Estimated
00:35 13.2831 -83.0710 135° Southeast  Level Estimated
00:36 13.1864 -82.9733 135° Southeast  Level Estimated
00:37 13.0896 -82.8757 135° Southeast  Level Estimated
00:38 12.9927 -82.7781 136° Southeast  Level Estimated
00:39 12.8959 -82.6806 136° Southeast  Level Estimated
00:40 12.7986 -82.5829 136° Southeast  Level Estimated
00:41 12.7014 -82.4852 136° Southeast  Level Estimated
00:42 12.6041 -82.3876 136° Southeast  Level Estimated
00:43 12.5067 -82.2901 136° Southeast  Level Estimated
00:44 12.4094 -82.1927 136° Southeast  Level Estimated
00:45 12.3119 -82.0953 136° Southeast  Level Estimated
00:46 12.2145 -81.9980 136° Southeast  Level Estimated
00:47 12.1170 -81.9008 136° Southeast  Level Estimated
00:48 12.0195 -81.8036 136° Southeast  Level Estimated
00:49 11.9220 -81.7065 136° Southeast  Level Estimated
00:50 11.8244 -81.6095 136° Southeast  Level Estimated
00:51 11.7268 -81.5126 136° Southeast  Level Estimated
00:52 11.6291 -81.4157 136° Southeast  Level Estimated
00:53 11.5315 -81.3189 136° Southeast  Level Estimated
00:54 11.4338 -81.2221 136° Southeast  Level Estimated
00:55 11.3360 -81.1255 136° Southeast  Level Estimated
00:56 11.2382 -81.0288 136° Southeast  Level Estimated
00:57 11.1404 -80.9323 136° Southeast  Level Estimated
00:58 11.0426 -80.8358 136° Southeast  Level Estimated
00:59 10.9447 -80.7394 136° Southeast  Level Estimated
01:00 10.8469 -80.6431 136° Southeast  Level Estimated
01:01 10.7489 -80.5468 136° Southeast  Level Estimated
01:02 10.6510 -80.4505 136° Southeast  Level Estimated
01:03 10.5530 -80.3544 136° Southeast  Level Estimated
01:04 10.4550 -80.2583 136° Southeast  Level Estimated
01:05 10.3570 -80.1622 136° Southeast  Level Estimated
01:06 10.2589 -80.0662 136° Southeast  Level Estimated
01:07 10.1608 -79.9703 136° Southeast  Level Estimated
01:08 10.0627 -79.8745 136° Southeast  Level Estimated
01:09 9.9645 -79.7786 136° Southeast  Level Estimated
01:10 9.8663 -79.6829 136° Southeast  Level Estimated
01:11 9.7681 -79.5872 136° Southeast  Level Estimated
01:12 9.6699 -79.4916 136° Southeast  Level Estimated
01:13 9.5716 -79.3960 136° Southeast  Level Estimated
01:14 9.4733 -79.3005 136° Southeast  Level Estimated
01:15 9.3750 -79.2050 136° Southeast  Level Estimated
01:16 9.2767 -79.1096 136° Southeast  Level Estimated
01:17 9.1783 -79.0142 136° Southeast  Level Estimated
01:18 9.0799 -78.9189 136° Southeast  Level Estimated
01:19 8.9815 -78.8236 136° Southeast  Level Estimated
01:20 8.8831 -78.7284 136° Southeast  Level Estimated
01:21 8.7846 -78.6333 136° Southeast  Level Estimated
01:22 8.6861 -78.5382 136° Southeast  Level Estimated
01:23 8.5876 -78.4431 136° Southeast  Level Estimated
01:24 8.4891 -78.3481 136° Southeast  Level Estimated
01:25 8.3905 -78.2532 136° Southeast  Level Estimated
01:26 8.2920 -78.1583 136° Southeast  Level Estimated
01:27 8.1934 -78.0634 136° Southeast  Level Estimated
01:28 8.0947 -77.9686 136° Southeast  Level Estimated
01:29 7.9961 -77.8738 136° Southeast  Level Estimated
01:30 7.8974 -77.7791 136° Southeast  Level Estimated
01:31 7.7987 -77.6844 136° Southeast  Level Estimated
01:32 7.7000 -77.5898 136° Southeast  Level Estimated
01:33 7.6013 -77.4952 136° Southeast  Level Estimated
01:34 7.5026 -77.4007 136° Southeast  Level Estimated
01:35 7.4038 -77.3062 137° Southeast  Level Estimated
01:36 7.3052 -77.2119 137° Southeast  Level Estimated
01:37 7.2065 -77.1176 137° Southeast  Level Estimated
01:38 7.1079 -77.0234 137° Southeast  Level Estimated
01:39 7.0092 -76.9292 137° Southeast  Level Estimated
01:40 6.9105 -76.8351 137° Southeast  Level Estimated
01:41 6.8118 -76.7410 137° Southeast  Level Estimated
01:42 6.7130 -76.6470 137° Southeast  Level Estimated
01:43 6.6143 -76.5529 137° Southeast  Level Estimated
01:44 6.5155 -76.4590 137° Southeast  Level Estimated
01:45 6.4167 -76.3650 137° Southeast  Level Estimated
01:46 6.3177 -76.2710 137° Southeast  Level Estimated
01:47 6.2188 -76.1769 137° Southeast  Level Estimated
01:48 6.1198 -76.0829 137° Southeast  Level Estimated
01:49 6.0207 -75.9890 137° Southeast  Level Estimated
01:50 5.9217 -75.8950 137° Southeast  Level Estimated
01:51 5.8226 -75.8011 137° Southeast  Level Estimated
01:52 5.7236 -75.7073 137° Southeast  Level Estimated
01:53 5.6245 -75.6134 137° Southeast  Level Estimated
01:54 5.5255 -75.5198 137° Southeast  Level Estimated
01:55 5.4266 -75.4262 137° Southeast  Level Estimated
01:56 5.3276 -75.3326 137° Southeast  Level Estimated
01:57 5.2287 -75.2391 137° Southeast  Level Estimated
01:58 5.1297 -75.1456 137° Southeast  Level Estimated
01:59 5.0307 -75.0521 137° Southeast  Level Estimated
02:00 4.9317 -74.9587 137° Southeast  Level Estimated
02:01 4.8326 -74.8652 137° Southeast  Level Estimated
02:02 4.7334 -74.7717 137° Southeast  Level Estimated
02:03 4.6342 -74.6781 137° Southeast  Level Estimated
02:04 4.5349 -74.5846 137° Southeast  Level Estimated
02:05 4.4357 -74.4911 137° Southeast  Level Estimated
02:06 4.3364 -74.3977 137° Southeast  Level Estimated
02:07 4.2372 -74.3043 137° Southeast  Level Estimated
02:08 4.1379 -74.2109 137° Southeast  Level Estimated
02:09 4.0386 -74.1175 137° Southeast  Level Estimated
02:10 3.9393 -74.0241 137° Southeast  Level Estimated
02:11 3.8400 -73.9308 137° Southeast  Level Estimated
02:12 3.7407 -73.8374 137° Southeast  Level Estimated
02:13 3.6413 -73.7441 137° Southeast  Level Estimated
02:14 3.5420 -73.6509 137° Southeast  Level Estimated
02:15 3.4427 -73.5576 137° Southeast  Level Estimated
02:16 3.3433 -73.4644 137° Southeast  Level Estimated
02:17 3.2439 -73.3711 137° Southeast  Level Estimated
02:18 3.1445 -73.2779 137° Southeast  Level Estimated
02:19 3.0452 -73.1848 137° Southeast  Level Estimated
02:20 2.9457 -73.0916 137° Southeast  Level Estimated
02:21 2.8463 -72.9985 137° Southeast  Level Estimated
02:22 2.7469 -72.9053 137° Southeast  Level Estimated
02:23 2.6475 -72.8122 137° Southeast  Level Estimated
02:24 2.5481 -72.7191 137° Southeast  Level Estimated
02:25 2.4487 -72.6260 137° Southeast  Level Estimated
02:26 2.3492 -72.5330 137° Southeast  Level Estimated
02:27 2.2498 -72.4399 137° Southeast  Level Estimated
02:28 2.1503 -72.3468 137° Southeast  Level Estimated
02:29 2.0509 -72.2538 137° Southeast  Level Estimated
02:30 1.9514 -72.1608 137° Southeast  Level Estimated
02:31 1.8519 -72.0678 137° Southeast  Level Estimated
02:32 1.7525 -71.9748 137° Southeast  Level Estimated
02:33 1.6530 -71.8818 137° Southeast  Level Estimated
02:34 1.5535 -71.7888 137° Southeast  Level Estimated
02:35 1.4540 -71.6958 137° Southeast  Level Estimated
02:36 1.3545 -71.6029 137° Southeast  Level Estimated
02:37 1.2550 -71.5099 137° Southeast  Level Estimated
02:38 1.1555 -71.4170 137° Southeast  Level Estimated
02:39 1.0560 -71.3240 137° Southeast  Level Estimated
02:40 0.9565 -71.2311 137° Southeast  Level Estimated
02:41 0.8570 -71.1382 137° Southeast  Level Estimated
02:42 0.7575 -71.0452 137° Southeast  Level Estimated
02:43 0.6580 -70.9523 137° Southeast  Level Estimated
02:44 0.5585 -70.8594 137° Southeast  Level Estimated
02:45 0.4590 -70.7665 137° Southeast  Level Estimated
02:46 0.3595 -70.6736 137° Southeast  Level Estimated
02:47 0.2600 -70.5806 137° Southeast  Level Estimated
02:48 0.1605 -70.4877 137° Southeast  Level Estimated
02:49 0.0609 -70.3948 137° Southeast  Level Estimated
02:50 -0.0386 -70.3019 137° Southeast  Level Estimated
02:51 -0.1381 -70.2090 137° Southeast  Level Estimated
02:52 -0.2376 -70.1161 137° Southeast  Level Estimated
02:53 -0.3371 -70.0232 137° Southeast  Level Estimated
02:54 -0.4366 -69.9303 137° Southeast  Level Estimated
02:55 -0.5361 -69.8373 137° Southeast  Level Estimated
02:56 -0.6356 -69.7444 137° Southeast  Level Estimated
02:57 -0.7351 -69.6515 137° Southeast  Level Estimated
02:58 -0.8346 -69.5586 137° Southeast  Level Estimated
02:59 -0.9341 -69.4657 137° Southeast  Level Estimated
03:00 -1.0337 -69.3727 137° Southeast  Level Estimated
03:01 -1.1331 -69.2798 137° Southeast  Level Estimated
03:02 -1.2327 -69.1868 137° Southeast  Level Estimated
03:03 -1.3321 -69.0939 137° Southeast  Level Estimated
03:04 -1.4316 -69.0009 137° Southeast  Level Estimated
03:05 -1.5311 -68.9079 137° Southeast  Level Estimated
03:06 -1.6306 -68.8149 137° Southeast  Level Estimated
03:07 -1.7301 -68.7220 137° Southeast  Level Estimated
03:08 -1.8296 -68.6290 137° Southeast  Level Estimated
03:09 -1.9290 -68.5359 137° Southeast  Level Estimated
03:10 -2.0285 -68.4429 137° Southeast  Level Estimated
03:11 -2.1279 -68.3499 137° Southeast  Level Estimated
03:12 -2.2274 -68.2569 137° Southeast  Level Estimated
03:13 -2.3268 -68.1638 137° Southeast  Level Estimated
03:14 -2.4263 -68.0707 137° Southeast  Level Estimated
03:15 -2.5257 -67.9777 137° Southeast  Level Estimated
03:16 -2.6251 -67.8846 137° Southeast  Level Estimated
03:17 -2.7246 -67.7914 137° Southeast  Level Estimated
03:18 -2.8240 -67.6983 137° Southeast  Level Estimated
03:19 -2.9234 -67.6052 137° Southeast  Level Estimated
03:20 -3.0228 -67.5120 137° Southeast  Level Estimated
03:21 -3.1222 -67.4188 137° Southeast  Level Estimated
03:22 -3.2215 -67.3256 137° Southeast  Level Estimated
03:23 -3.3209 -67.2324 137° Southeast  Level Estimated
03:24 -3.4203 -67.1392 137° Southeast  Level Estimated
03:25 -3.5196 -67.0459 137° Southeast  Level Estimated
03:26 -3.6190 -66.9527 137° Southeast  Level Estimated
03:27 -3.7183 -66.8594 137° Southeast  Level Estimated
03:28 -3.8177 -66.7661 137° Southeast  Level Estimated
03:29 -3.9170 -66.6727 137° Southeast  Level Estimated
03:30 -4.0163 -66.5794 137° Southeast  Level Estimated
03:31 -4.1156 -66.4860 137° Southeast  Level Estimated
03:32 -4.2149 -66.3926 137° Southeast  Level Estimated
03:33 -4.3141 -66.2992 137° Southeast  Level Estimated
03:34 -4.4134 -66.2057 137° Southeast  Level Estimated
03:35 -4.5127 -66.1122 137° Southeast  Level Estimated
03:36 -4.6119 -66.0187 137° Southeast  Level Estimated
03:37 -4.7111 -65.9252 137° Southeast  Level Estimated
03:38 -4.8103 -65.8317 137° Southeast  Level Estimated
03:39 -4.9095 -65.7381 137° Southeast  Level Estimated
03:40 -5.0087 -65.6445 137° Southeast  Level Estimated
03:41 -5.1079 -65.5508 137° Southeast  Level Estimated
03:42 -5.2070 -65.4572 137° Southeast  Level Estimated
03:43 -5.3062 -65.3635 137° Southeast  Level Estimated
03:44 -5.4053 -65.2697 137° Southeast  Level Estimated
03:45 -5.5044 -65.1760 137° Southeast  Level Estimated
03:46 -5.6035 -65.0822 137° Southeast  Level Estimated
03:47 -5.7026 -64.9884 137° Southeast  Level Estimated
03:48 -5.8017 -64.8945 137° Southeast  Level Estimated
03:49 -5.9008 -64.8006 137° Southeast  Level Estimated
03:50 -5.9998 -64.7067 137° Southeast  Level Estimated
03:51 -6.0988 -64.6127 137° Southeast  Level Estimated
03:52 -6.1979 -64.5188 137° Southeast  Level Estimated
03:53 -6.2970 -64.4246 137° Southeast  Level Estimated
03:54 -6.3962 -64.3304 137° Southeast  Level Estimated
03:55 -6.4953 -64.2361 137° Southeast  Level Estimated
03:56 -6.5944 -64.1418 137° Southeast  Level Estimated
03:57 -6.6935 -64.0475 137° Southeast  Level Estimated
03:58 -6.7926 -63.9531 137° Southeast  Level Estimated
03:59 -6.8916 -63.8587 137° Southeast  Level Estimated
04:00 -6.9907 -63.7642 137° Southeast  Level Estimated
04:01 -7.0897 -63.6698 137° Southeast  Level Estimated
04:02 -7.1887 -63.5752 137° Southeast  Level Estimated
04:03 -7.2877 -63.4807 137° Southeast  Level Estimated
04:04 -7.3866 -63.3860 137° Southeast  Level Estimated
04:05 -7.4856 -63.2914 137° Southeast  Level Estimated
04:06 -7.5845 -63.1967 137° Southeast  Level Estimated
04:07 -7.6834 -63.1019 136° Southeast  Level Estimated
04:08 -7.7823 -63.0071 136° Southeast  Level Estimated
04:09 -7.8811 -62.9123 136° Southeast  Level Estimated
04:10 -7.9800 -62.8174 136° Southeast  Level Estimated
04:11 -8.0788 -62.7225 136° Southeast  Level Estimated
04:12 -8.1774 -62.6277 136° Southeast  Level Estimated
04:13 -8.2760 -62.5329 136° Southeast  Level Estimated
04:14 -8.3746 -62.4380 136° Southeast  Level Estimated
04:15 -8.4732 -62.3430 136° Southeast  Level Estimated
04:16 -8.5717 -62.2480 136° Southeast  Level Estimated
04:17 -8.6702 -62.1530 136° Southeast  Level Estimated
04:18 -8.7687 -62.0579 136° Southeast  Level Estimated
04:19 -8.8672 -61.9627 136° Southeast  Level Estimated
04:20 -8.9656 -61.8675 136° Southeast  Level Estimated
04:21 -9.0640 -61.7723 136° Southeast  Level Estimated
04:22 -9.1624 -61.6770 136° Southeast  Level Estimated
04:23 -9.2608 -61.5816 136° Southeast  Level Estimated
04:24 -9.3591 -61.4862 136° Southeast  Level Estimated
04:25 -9.4574 -61.3907 136° Southeast  Level Estimated
04:26 -9.5557 -61.2952 136° Southeast  Level Estimated
04:27 -9.6540 -61.1996 136° Southeast  Level Estimated
04:28 -9.7522 -61.1040 136° Southeast  Level Estimated
04:29 -9.8505 -61.0083 136° Southeast  Level Estimated
04:30 -9.9487 -60.9126 136° Southeast  Level Estimated
04:31 -10.0468 -60.8168 136° Southeast  Level Estimated
04:32 -10.1449 -60.7209 136° Southeast  Level Estimated
04:33 -10.2430 -60.6250 136° Southeast  Level Estimated
04:34 -10.3411 -60.5291 136° Southeast  Level Estimated
04:35 -10.4392 -60.4330 136° Southeast  Level Estimated
04:36 -10.5372 -60.3369 136° Southeast  Level Estimated
04:37 -10.6352 -60.2408 136° Southeast  Level Estimated
04:38 -10.7331 -60.1446 136° Southeast  Level Estimated
04:39 -10.8311 -60.0483 136° Southeast  Level Estimated
04:40 -10.9290 -59.9519 136° Southeast  Level Estimated
04:41 -11.0268 -59.8555 136° Southeast  Level Estimated
04:42 -11.1247 -59.7591 136° Southeast  Level Estimated
04:43 -11.2225 -59.6625 136° Southeast  Level Estimated
04:44 -11.3203 -59.5659 136° Southeast  Level Estimated
04:45 -11.4180 -59.4693 136° Southeast  Level Estimated
04:46 -11.5157 -59.3725 136° Southeast  Level Estimated
04:47 -11.6134 -59.2757 136° Southeast  Level Estimated
04:48 -11.7111 -59.1789 136° Southeast  Level Estimated
04:49 -11.8087 -59.0819 136° Southeast  Level Estimated
04:50 -11.9062 -58.9849 136° Southeast  Level Estimated
04:51 -12.0038 -58.8878 136° Southeast  Level Estimated
04:52 -12.1013 -58.7907 136° Southeast  Level Estimated
04:53 -12.1988 -58.6935 136° Southeast  Level Estimated
04:54 -12.2963 -58.5962 136° Southeast  Level Estimated
04:55 -12.3938 -58.4986 136° Southeast  Level Estimated
04:56 -12.4914 -58.4010 136° Southeast  Level Estimated
04:57 -12.5889 -58.3034 136° Southeast  Level Estimated
04:58 -12.6864 -58.2056 136° Southeast  Level Estimated
04:59 -12.7838 -58.1078 136° Southeast  Level Estimated
05:00 -12.8812 -58.0099 136° Southeast  Level Estimated
05:01 -12.9786 -57.9119 136° Southeast  Level Estimated
05:02 -13.0759 -57.8139 136° Southeast  Level Estimated
05:03 -13.1732 -57.7158 136° Southeast  Level Estimated
05:04 -13.2705 -57.6175 136° Southeast  Level Estimated
05:05 -13.3677 -57.5192 135° Southeast  Level Estimated
05:06 -13.4649 -57.4209 135° Southeast  Level Estimated
05:07 -13.5620 -57.3224 135° Southeast  Level Estimated
05:08 -13.6591 -57.2239 135° Southeast  Level Estimated
05:09 -13.7562 -57.1253 135° Southeast  Level Estimated
05:10 -13.8532 -57.0266 135° Southeast  Level Estimated
05:11 -13.9502 -56.9278 135° Southeast  Level Estimated
05:12 -14.0472 -56.8290 135° Southeast  Level Estimated
05:13 -14.1441 -56.7301 135° Southeast  Level Estimated
05:14 -14.2409 -56.6310 135° Southeast  Level Estimated
05:15 -14.3378 -56.5319 135° Southeast  Level Estimated
05:16 -14.4346 -56.4327 135° Southeast  Level Estimated
05:17 -14.5313 -56.3335 135° Southeast  Level Estimated
05:18 -14.6280 -56.2341 135° Southeast  Level Estimated
05:19 -14.7247 -56.1346 135° Southeast  Level Estimated
05:20 -14.8213 -56.0351 135° Southeast  Level Estimated
05:21 -14.9179 -55.9355 135° Southeast  Level Estimated
05:22 -15.0144 -55.8358 135° Southeast  Level Estimated
05:23 -15.1109 -55.7359 135° Southeast  Level Estimated
05:24 -15.2073 -55.6360 135° Southeast  Level Estimated
05:25 -15.3037 -55.5360 135° Southeast  Level Estimated
05:26 -15.4001 -55.4360 135° Southeast  Level Estimated
05:27 -15.4964 -55.3358 135° Southeast  Level Estimated
05:28 -15.5927 -55.2355 135° Southeast  Level Estimated
05:29 -15.6889 -55.1352 135° Southeast  Level Estimated
05:30 -15.7851 -55.0347 135° Southeast  Level Estimated
05:31 -15.8812 -54.9342 135° Southeast  Level Estimated
05:32 -15.9773 -54.8335 135° Southeast  Level Estimated
05:33 -16.0733 -54.7327 135° Southeast  Level Estimated
05:34 -16.1693 -54.6319 135° Southeast  Level Estimated
05:35 -16.2652 -54.5310 135° Southeast  Level Estimated
05:36 -16.3611 -54.4299 135° Southeast  Level Estimated
05:37 -16.4570 -54.3288 135° Southeast  Level Estimated
05:38 -16.5528 -54.2276 135° Southeast  Level Estimated
05:39 -16.6485 -54.1262 135° Southeast  Level Estimated
05:40 -16.7442 -54.0248 135° Southeast  Level Estimated
05:41 -16.8399 -53.9232 135° Southeast  Level Estimated
05:42 -16.9355 -53.8216 135° Southeast  Level Estimated
05:43 -17.0310 -53.7198 134° Southeast  Level Estimated
05:44 -17.1265 -53.6180 134° Southeast  Level Estimated
05:45 -17.2220 -53.5160 134° Southeast  Level Estimated
05:46 -17.3174 -53.4140 134° Southeast  Level Estimated
05:47 -17.4127 -53.3118 134° Southeast  Level Estimated
05:48 -17.5080 -53.2095 134° Southeast  Level Estimated
05:49 -17.6032 -53.1071 134° Southeast  Level Estimated
05:50 -17.6984 -53.0046 134° Southeast  Level Estimated
05:51 -17.7935 -52.9020 134° Southeast  Level Estimated
05:52 -17.8886 -52.7993 134° Southeast  Level Estimated
05:53 -17.9836 -52.6965 134° Southeast  Level Estimated
05:54 -18.0786 -52.5936 134° Southeast  Level Estimated
05:55 -18.1735 -52.4905 134° Southeast  Level Estimated
05:56 -18.2684 -52.3874 134° Southeast  Level Estimated
05:57 -18.3632 -52.2841 134° Southeast  Level Estimated
05:58 -18.4580 -52.1807 134° Southeast  Level Estimated
05:59 -18.5526 -52.0772 134° Southeast  Level Estimated
06:00 -18.6473 -51.9736 134° Southeast  Level Estimated
06:01 -18.7419 -51.8699 134° Southeast  Level Estimated
06:02 -18.8364 -51.7660 134° Southeast  Level Estimated
06:03 -18.9308 -51.6621 134° Southeast  Level Estimated
06:04 -19.0253 -51.5580 134° Southeast  Level Estimated
06:05 -19.1196 -51.4538 134° Southeast  Level Estimated
06:06 -19.2139 -51.3495 134° Southeast  Level Estimated
06:07 -19.3081 -51.2451 134° Southeast  Level Estimated
06:08 -19.4023 -51.1405 134° Southeast  Level Estimated
06:09 -19.4964 -51.0358 134° Southeast  Level Estimated
06:10 -19.5905 -50.9310 134° Southeast  Level Estimated
06:11 -19.6845 -50.8261 134° Southeast  Level Estimated
06:12 -19.7784 -50.7211 134° Southeast  Level Estimated
06:13 -19.8722 -50.6159 134° Southeast  Level Estimated
06:14 -19.9661 -50.5106 133° Southeast  Level Estimated
06:15 -20.0598 -50.4052 133° Southeast  Level Estimated
06:16 -20.1535 -50.2997 133° Southeast  Level Estimated
06:16 -18.9720 -49.3850 133° Southeast 472 543 39,000  Level FlightAware
06:17 -20.2471 -50.1940 133° Southeast  Level Estimated
06:17 -19.0840 -49.3120 148° Southeast 471 542 39,000  Level FlightAware
06:18 -19.1640 -49.2590 148° Southeast 471 542 39,000  Level FlightAware
06:18 -19.2480 -49.2030 148° Southeast 471 542 39,000  Level FlightAware
06:19 -19.3200 -49.1550 148° Southeast 469 540 39,000  Level FlightAware
06:20 -19.3570 -49.1310 149° Southeast 470 541 39,000  Level FlightAware
06:20 -19.4160 -49.0910 147° Southeast 471 542 39,000  Level FlightAware
06:21 -19.5500 -49.0020 148° Southeast 471 542 39,000  Level FlightAware
06:22 -19.6250 -48.9520 148° Southeast 470 541 39,000  Level FlightAware
06:23 -19.7080 -48.8960 148° Southeast 468 539 39,000  Level FlightAware
06:23 -19.7840 -48.8460 148° Southeast 468 539 39,000  Level FlightAware
06:24 -19.8620 -48.7930 147° Southeast 469 540 39,000  Level FlightAware
06:25 -19.9370 -48.7430 148° Southeast 470 541 39,000  Level FlightAware
06:25 -20.0220 -48.6860 148° Southeast 471 542 39,000  Level FlightAware
06:26 -20.0950 -48.6360 147° Southeast 470 541 39,000  Level FlightAware
06:27 -20.1690 -48.5870 148° Southeast 469 540 39,000  Level FlightAware
06:27 -20.2420 -48.5370 147° Southeast 468 539 39,000  Level FlightAware
06:28 -20.3240 -48.4820 148° Southeast 467 537 39,000  Level FlightAware
06:29 -20.4000 -48.4300 147° Southeast 467 537 39,000  Level FlightAware
06:30 -20.4790 -48.3770 148° Southeast 466 536 39,000  Level FlightAware
06:30 -20.5590 -48.3230 148° Southeast 466 536 39,000  Level FlightAware
06:31 -20.6260 -48.2770 147° Southeast 466 536 39,000  Level FlightAware
06:32 -20.7060 -48.2230 148° Southeast 465 535 39,000  Level FlightAware
06:32 -20.7870 -48.1680 148° Southeast 466 536 39,000  Level FlightAware
06:33 -20.8590 -48.1190 148° Southeast 466 536 39,000  Level FlightAware
06:34 -20.9430 -48.0620 148° Southeast 466 536 39,000  Level FlightAware
06:34 -21.0160 -48.0110 147° Southeast 466 536 39,000  Level FlightAware
06:35 -21.0890 -47.9620 148° Southeast 468 539 39,000  Level FlightAware
06:36 -21.1720 -47.9050 147° Southeast 468 539 39,000  Level FlightAware
06:37 -21.2460 -47.8540 147° Southeast 468 539 39,000  Level FlightAware
06:37 -21.3180 -47.8050 148° Southeast 468 539 39,000  Level FlightAware
06:38 -21.4000 -47.7480 147° Southeast 469 540 39,000  Level FlightAware
06:39 -21.4730 -47.6980 147° Southeast 469 540 39,000  Level FlightAware
06:39 -21.5560 -47.6410 147° Southeast 469 540 39,000  Level FlightAware
06:40 -21.6220 -47.6020 151° Southeast 465 535 39,000 -480 Level FlightAware
06:41 -21.7170 -47.5520 154° Southeast 454 522 38,400 -1,200 Descending FlightAware
06:41 -21.7930 -47.5130 155° Southeast 466 536 37,200 -1,680 Descending FlightAware
06:42 -21.8710 -47.4730 155° Southeast 470 541 36,200 -1,860 Descending FlightAware
06:43 -21.9620 -47.4240 153° Southeast 475 547 34,600 -2,880 Descending FlightAware
06:44 -22.0430 -47.3810 154° Southeast 487 560 32,200 -3,420 Descending FlightAware
06:44 -22.1230 -47.3380 154° Southeast 489 563 30,100 -2,760 Descending FlightAware
06:45 -22.2120 -47.2910 154° Southeast 478 550 28,300 -2,280 Descending FlightAware
06:46 -22.3090 -47.2400 154° Southeast 465 535 26,300 -2,340 Descending FlightAware
06:46 -22.3820 -47.2010 154° Southeast 457 526 24,800 -2,280 Descending FlightAware
06:47 -22.4680 -47.1560 154° Southeast 445 512 23,100 -2,100 Descending FlightAware
06:48 -22.5450 -47.1150 154° Southeast 428 493 21,700 -2,160 Descending FlightAware
06:49 -22.6220 -47.0780 156° South 413 475 20,100 -2,220 Descending FlightAware
06:49 -22.6820 -47.0530 159° South 402 463 18,800 -2,400 Descending FlightAware
06:50 -22.7630 -47.0200 159° South 400 460 16,900 -2,400 Descending FlightAware
06:51 -22.8350 -46.9890 158° South 395 455 15,400 -1,680 Descending FlightAware
06:51 -22.8960 -46.9640 159° South 373 429 14,800 -1,500 Descending FlightAware
06:52 -22.9770 -46.9300 159° South 365 420 13,200 -1,680 Descending FlightAware
06:53 -23.0350 -46.9050 158° South 334 384 12,300 -1,740 Descending FlightAware
06:54 -23.0960 -46.8800 159° South 291 335 10,800 -2,160 Descending FlightAware
06:54 -23.1250 -46.8670 158° South 290 334 9,800 -1,920 Descending FlightAware
06:54 -23.1570 -46.8540 160° South 283 326 9,400 -720 Descending FlightAware
06:55 -23.1990 -46.8360 159° South 259 298 9,100 -480 Descending FlightAware
06:55 -23.2300 -46.8230 159° South 237 273 8,900 -540 Descending FlightAware
06:56 -23.2570 -46.8120 159° South 216 249 8,600 -780 Descending FlightAware
06:56 -23.2680 -46.8070 157° South 210 242 8,400 -1,200 Descending FlightAware
06:57 -23.2900 -46.7980 159° South 210 242 7,900 -1,020 Descending FlightAware
06:57 -23.3220 -46.7840 158° South 214 246 7,400 -600 Descending FlightAware
06:58 -23.3420 -46.7760 160° South 214 246 7,300 -480 Descending FlightAware
06:58 -23.3730 -46.7610 156° South 213 245 7,000 -540 Descending FlightAware
06:58 -23.3780 -46.7570 144° Southeast 215 247 7,000 -720 Level FlightAware
06:58 -23.3910 -46.7430 135° Southeast 218 251 6,700 -960 Descending FlightAware
06:59 -23.4070 -46.7160 123° Southeast 219 252 6,200 -1,080 Descending FlightAware
06:59 -23.4130 -46.7040 119° Southeast 220 253 6,000 -1,080 Descending FlightAware
07:00 -23.4290 -46.6760 122° Southeast 219 252 5,500 -840 Descending FlightAware
07:00 -23.4360 -46.6640 122° Southeast 212 244 5,400 -720 Descending FlightAware
07:00 -23.4500 -46.6390 121° Southeast 199 229 5,000 -900 Descending FlightAware
07:01 -23.4560 -46.6280 121° Southeast 199 229 4,800 -1,080 Descending FlightAware
07:01 -23.4710 -46.6030 123° Southeast 198 228 4,300 -1,080 Descending FlightAware
07:01 -23.4710 -46.5970 90° East 193 222 4,200 -840 Descending FlightAware
07:03 -23.4470 -46.5160 72° East 144 166 2,800 -780 Descending FlightAware
07:03 -23.4420 -46.4980 73° East 139 160 2,500 -720 Descending FlightAware